Time,TemperatureF,DewpointF,PressureIn,WindDirection,WindDirectionDegrees,WindSpeedMPH,WindSpeedGustMPH,Humidity,HourlyPrecipIn,Conditions,Clouds,dailyrainin,SoftwareType,DateUTC
2013-05-11 00:01:00,70.0,66.6,30.02,NE,45,0.0,0.0,89,0.00,BKN,,0.00,WeatherDisplay:10.37,2013-05-11 04:01:00,
2013-05-11 00:06:00,69.6,66.2,30.02,NE,45,0.0,0.0,89,0.00,BKN,,0.00,WeatherDisplay:10.37,2013-05-11 04:06:00,
2013-05-11 00:11:00,69.4,66.1,30.02,NE,45,0.0,0.0,89,0.00,BKN,,0.00,WeatherDisplay:10.37,2013-05-11 04:11:00,
2013-05-11 00:16:00,69.4,66.1,30.02,NE,45,0.0,0.0,89,0.00,BKN,,0.00,WeatherDisplay:10.37,2013-05-11 04:16:00,
2013-05-11 00:21:00,69.1,65.7,30.02,NE,45,0.0,0.0,89,0.00,BKN,,0.00,WeatherDisplay:10.37,2013-05-11 04:21:00,
2013-05-11 00:26:00,69.1,65.7,30.02,NE,45,0.0,0.0,89,0.00,BKN,,0.00,WeatherDisplay:10.37,2013-05-11 04:26:00,
2013-05-11 00:31:00,68.9,65.8,30.01,NE,45,0.0,0.0,90,0.00,BKN,,0.00,WeatherDisplay:10.37,2013-05-11 04:31:00,
2013-05-11 00:36:00,68.7,65.7,30.01,NE,45,0.0,0.0,90,0.00,BKN,,0.00,WeatherDisplay:10.37,2013-05-11 04:36:00,
2013-05-11 00:41:00,68.5,65.5,30.01,NE,45,0.0,0.0,90,0.00,BKN,,0.00,WeatherDisplay:10.37,2013-05-11 04:41:00,
2013-05-11 00:46:00,68.5,65.8,30.01,NE,45,0.0,0.0,91,0.00,BKN,,0.00,WeatherDisplay:10.37,2013-05-11 04:46:00,
2013-05-11 00:51:00,68.5,65.8,30.00,NE,45,0.0,0.0,91,0.00,BKN,,0.00,WeatherDisplay:10.37,2013-05-11 04:51:00,
2013-05-11 00:56:00,68.5,65.8,30.00,NE,45,0.0,0.0,91,0.00,BKN,,0.00,WeatherDisplay:10.37,2013-05-11 04:56:00,
2013-05-11 01:01:00,68.5,65.8,30.00,NE,45,0.0,0.0,91,0.00,BKN,,0.00,WeatherDisplay:10.37,2013-05-11 05:01:00,
2013-05-11 01:06:00,68.9,66.5,30.01,NE,45,0.0,0.0,92,0.00,BKN,,0.00,WeatherDisplay:10.37,2013-05-11 05:06:00,
2013-05-11 01:11:00,68.9,66.2,30.00,NE,45,0.0,0.0,91,0.00,BKN,,0.00,WeatherDisplay:10.37,2013-05-11 05:11:00,
2013-05-11 01:16:00,68.9,66.2,30.01,NE,45,0.0,0.0,91,0.00,BKN,,0.00,WeatherDisplay:10.37,2013-05-11 05:16:00,
2013-05-11 01:21:00,68.9,66.2,30.00,NE,45,0.0,0.0,91,0.00,BKN,,0.00,WeatherDisplay:10.37,2013-05-11 05:21:00,
2013-05-11 01:26:00,69.1,66.3,30.00,NE,45,0.0,0.0,91,0.00,BKN,,0.00,WeatherDisplay:10.37,2013-05-11 05:26:00,
2013-05-11 01:31:00,69.1,66.3,30.00,NE,45,0.0,0.0,91,0.00,BKN,,0.00,WeatherDisplay:10.37,2013-05-11 05:31:00,
2013-05-11 01:36:00,68.9,66.2,30.00,NE,45,0.0,0.0,91,0.00,BKN,,0.00,WeatherDisplay:10.37,2013-05-11 05:36:00,
2013-05-11 01:41:00,68.5,65.8,30.00,NE,45,0.0,0.0,91,0.00,BKN,,0.00,WeatherDisplay:10.37,2013-05-11 05:41:00,
2013-05-11 01:46:00,68.5,65.8,30.00,NE,45,0.0,0.0,91,0.00,BKN,,0.00,WeatherDisplay:10.37,2013-05-11 05:46:00,
2013-05-11 01:51:00,68.2,65.5,30.00,NE,45,0.0,0.0,91,0.00,BKN,,0.00,WeatherDisplay:10.37,2013-05-11 05:51:00,
2013-05-11 01:56:00,68.0,65.6,30.00,NE,45,0.0,0.0,92,0.00,BKN,,0.00,WeatherDisplay:10.37,2013-05-11 05:56:00,
2013-05-11 02:01:00,68.0,65.6,30.00,NE,45,0.0,0.0,92,0.00,SCT,,0.00,WeatherDisplay:10.37,2013-05-11 06:01:00,
2013-05-11 02:06:00,67.8,65.4,30.00,NE,45,0.0,0.0,92,0.00,SCT,,0.00,WeatherDisplay:10.37,2013-05-11 06:06:00,
2013-05-11 02:11:00,67.6,65.2,29.99,NE,45,0.0,0.0,92,0.00,SCT,,0.00,WeatherDisplay:10.37,2013-05-11 06:11:00,
2013-05-11 02:16:00,67.6,65.5,29.99,NE,45,0.0,0.0,93,0.00,SCT,,0.00,WeatherDisplay:10.37,2013-05-11 06:16:00,
2013-05-11 02:21:00,67.6,65.5,29.99,NE,45,0.0,0.0,93,0.00,SCT,,0.00,WeatherDisplay:10.37,2013-05-11 06:21:00,
2013-05-11 02:26:00,67.6,65.9,29.99,NE,45,0.0,0.0,94,0.00,SCT,,0.00,WeatherDisplay:10.37,2013-05-11 06:26:00,
2013-05-11 02:31:00,67.8,65.7,30.00,NE,45,0.0,0.0,93,0.00,SCT,,0.00,WeatherDisplay:10.37,2013-05-11 06:31:00,
2013-05-11 02:36:00,67.8,65.7,29.99,NE,45,0.0,0.0,93,0.00,SCT,,0.00,WeatherDisplay:10.37,2013-05-11 06:36:00,
2013-05-11 02:41:00,67.6,65.5,29.99,NE,45,0.0,0.0,93,0.00,SCT,,0.00,WeatherDisplay:10.37,2013-05-11 06:41:00,
2013-05-11 02:46:00,67.8,65.7,29.99,NE,45,0.0,0.0,93,0.00,SCT,,0.00,WeatherDisplay:10.37,2013-05-11 06:46:00,
2013-05-11 02:51:00,67.6,65.5,29.98,NE,45,0.0,0.0,93,0.00,SCT,,0.00,WeatherDisplay:10.37,2013-05-11 06:51:00,
2013-05-11 02:56:00,67.6,65.2,29.98,NE,45,0.0,0.0,92,0.00,SCT,,0.00,WeatherDisplay:10.37,2013-05-11 06:56:00,
2013-05-11 03:01:00,67.6,65.2,29.99,NE,45,0.0,0.0,92,0.00,BKN,,0.00,WeatherDisplay:10.37,2013-05-11 07:01:00,
2013-05-11 03:06:00,67.6,65.2,29.99,NE,45,0.0,0.0,92,0.00,BKN,,0.00,WeatherDisplay:10.37,2013-05-11 07:06:00,
2013-05-11 03:11:00,67.5,65.1,29.99,NE,45,0.0,0.0,92,0.00,BKN,,0.00,WeatherDisplay:10.37,2013-05-11 07:11:00,
2013-05-11 03:16:00,67.5,65.1,29.99,NE,45,0.0,0.0,92,0.00,BKN,,0.00,WeatherDisplay:10.37,2013-05-11 07:16:00,
2013-05-11 03:21:00,67.6,64.9,29.99,NE,45,0.0,0.0,91,0.00,BKN,,0.00,WeatherDisplay:10.37,2013-05-11 07:21:00,
2013-05-11 03:26:00,67.8,64.8,29.99,NE,45,0.0,0.0,90,0.00,BKN,,0.00,WeatherDisplay:10.37,2013-05-11 07:26:00,
2013-05-11 03:31:00,67.8,64.5,29.99,NE,45,0.0,0.0,89,0.00,BKN,,0.00,WeatherDisplay:10.37,2013-05-11 07:31:00,
2013-05-11 03:36:00,68.0,64.3,29.98,NE,45,0.0,0.0,88,0.00,BKN,,0.00,WeatherDisplay:10.37,2013-05-11 07:36:00,
2013-05-11 03:41:00,67.6,64.3,29.98,NE,45,0.0,0.0,89,0.00,BKN,,0.00,WeatherDisplay:10.37,2013-05-11 07:41:00,
2013-05-11 03:46:00,67.6,64.0,29.98,NE,45,0.0,0.0,88,0.00,BKN,,0.00,WeatherDisplay:10.37,2013-05-11 07:46:00,
2013-05-11 03:51:00,67.8,64.5,29.97,NE,45,0.0,0.0,89,0.00,BKN,,0.00,WeatherDisplay:10.37,2013-05-11 07:51:00,
2013-05-11 03:56:00,67.6,64.6,29.98,NE,45,0.0,0.0,90,0.00,BKN,,0.00,WeatherDisplay:10.37,2013-05-11 07:56:00,
2013-05-11 04:01:00,67.3,64.2,29.97,NE,45,0.0,0.0,90,0.00,BKN,,0.00,WeatherDisplay:10.37,2013-05-11 08:01:00,
2013-05-11 04:05:00,67.1,63.7,29.97,NE,45,0.0,0.0,89,0.00,SCT,,0.00,WeatherDisplay:10.37,2013-05-11 08:05:00,
2013-05-11 04:10:00,67.3,64.2,29.97,NE,45,0.0,0.0,90,0.00,SCT,,0.00,WeatherDisplay:10.37,2013-05-11 08:10:00,
2013-05-11 04:15:00,67.1,63.7,29.97,NE,45,0.0,0.0,89,0.00,SCT,,0.00,WeatherDisplay:10.37,2013-05-11 08:15:00,
2013-05-11 04:20:00,66.7,63.7,29.97,NE,45,0.0,0.0,90,0.00,SCT,,0.00,WeatherDisplay:10.37,2013-05-11 08:20:00,
2013-05-11 04:25:00,66.7,63.7,29.96,NE,45,0.0,0.0,90,0.00,SCT,,0.00,WeatherDisplay:10.37,2013-05-11 08:25:00,
2013-05-11 04:30:00,66.6,63.5,29.96,NE,45,0.0,0.0,90,0.00,SCT,,0.00,WeatherDisplay:10.37,2013-05-11 08:30:00,
2013-05-11 04:35:00,66.4,63.4,29.96,NE,45,0.0,0.0,90,0.00,SCT,,0.00,WeatherDisplay:10.37,2013-05-11 08:35:00,
2013-05-11 04:40:00,66.2,63.2,29.96,NE,45,0.0,0.0,90,0.00,SCT,,0.00,WeatherDisplay:10.37,2013-05-11 08:40:00,
2013-05-11 04:45:00,66.0,63.0,29.95,NE,45,0.0,0.0,90,0.00,SCT,,0.00,WeatherDisplay:10.37,2013-05-11 08:45:00,
2013-05-11 04:50:00,66.0,63.3,29.95,NE,45,0.0,0.0,91,0.00,SCT,,0.00,WeatherDisplay:10.37,2013-05-11 08:50:00,
2013-05-11 04:55:00,66.0,63.0,29.95,NE,45,0.0,0.0,90,0.00,SCT,,0.00,WeatherDisplay:10.37,2013-05-11 08:55:00,
2013-05-11 05:00:00,66.0,63.3,29.95,NE,45,0.0,0.0,91,0.00,SCT,,0.00,WeatherDisplay:10.37,2013-05-11 09:00:00,
2013-05-11 05:05:00,66.4,63.7,29.95,NE,45,0.0,0.0,91,0.00,BKN,,0.00,WeatherDisplay:10.37,2013-05-11 09:05:00,
2013-05-11 05:10:00,66.4,63.7,29.95,NE,45,0.0,0.0,91,0.00,BKN,,0.00,WeatherDisplay:10.37,2013-05-11 09:10:00,
2013-05-11 05:15:00,66.6,63.9,29.95,NE,45,0.0,0.0,91,0.00,BKN,,0.00,WeatherDisplay:10.37,2013-05-11 09:15:00,
2013-05-11 05:20:00,66.7,64.0,29.96,NE,45,0.0,0.0,91,0.00,BKN,,0.00,WeatherDisplay:10.37,2013-05-11 09:20:00,
2013-05-11 05:25:00,66.9,63.9,29.96,NE,45,0.0,0.0,90,0.00,BKN,,0.00,WeatherDisplay:10.37,2013-05-11 09:25:00,
2013-05-11 05:30:00,67.1,63.7,29.96,NE,45,0.0,0.0,89,0.00,BKN,,0.00,WeatherDisplay:10.37,2013-05-11 09:30:00,
2013-05-11 05:35:00,67.3,63.6,29.96,NE,45,0.0,0.0,88,0.00,BKN,,0.00,WeatherDisplay:10.37,2013-05-11 09:35:00,
2013-05-11 05:40:00,67.6,64.0,29.95,NE,45,0.0,0.0,88,0.00,BKN,,0.00,WeatherDisplay:10.37,2013-05-11 09:40:00,
2013-05-11 05:45:00,67.6,64.0,29.95,NE,45,0.0,0.0,88,0.00,BKN,,0.00,WeatherDisplay:10.37,2013-05-11 09:45:00,
2013-05-11 05:50:00,67.6,64.0,29.95,NE,45,0.0,0.0,88,0.00,BKN,,0.00,WeatherDisplay:10.37,2013-05-11 09:50:00,
2013-05-11 05:55:00,67.6,63.6,29.95,NE,45,0.0,0.0,87,0.00,BKN,,0.00,WeatherDisplay:10.37,2013-05-11 09:55:00,
2013-05-11 06:00:00,67.8,63.8,29.96,NE,45,0.0,0.0,87,0.00,BKN,,0.00,WeatherDisplay:10.37,2013-05-11 10:00:00,
2013-05-11 06:05:00,67.8,63.8,29.96,NE,45,0.0,0.0,87,0.00,OVC,,0.00,WeatherDisplay:10.37,2013-05-11 10:05:00,
2013-05-11 06:10:00,67.8,63.8,29.96,NE,45,0.0,0.0,87,0.00,OVC,,0.00,WeatherDisplay:10.37,2013-05-11 10:10:00,
2013-05-11 06:15:00,67.8,63.8,29.97,NE,45,0.0,0.0,87,0.00,OVC,,0.00,WeatherDisplay:10.37,2013-05-11 10:15:00,
2013-05-11 06:20:00,67.8,63.8,29.97,NE,45,0.0,0.0,87,0.00,OVC,,0.00,WeatherDisplay:10.37,2013-05-11 10:20:00,
2013-05-11 06:25:00,67.8,63.8,29.97,NE,45,0.0,0.0,87,0.00,OVC,,0.00,WeatherDisplay:10.37,2013-05-11 10:25:00,
2013-05-11 06:30:00,67.8,63.8,29.97,NE,45,0.0,0.0,87,0.00,OVC,,0.00,WeatherDisplay:10.37,2013-05-11 10:30:00,
2013-05-11 06:35:00,67.8,64.1,29.98,NE,45,0.0,0.0,88,0.00,OVC,,0.00,WeatherDisplay:10.37,2013-05-11 10:35:00,
2013-05-11 06:40:00,67.8,64.1,29.98,NE,45,0.0,0.0,88,0.00,OVC,,0.00,WeatherDisplay:10.37,2013-05-11 10:40:00,
2013-05-11 06:45:00,67.8,64.1,29.99,NE,45,0.0,0.0,88,0.00,OVC,,0.00,WeatherDisplay:10.37,2013-05-11 10:45:00,
2013-05-11 06:50:00,67.8,64.1,29.99,NE,45,0.0,0.0,88,0.00,OVC,,0.00,WeatherDisplay:10.37,2013-05-11 10:50:00,
2013-05-11 06:55:00,67.8,64.1,29.99,NE,45,0.0,0.0,88,0.00,OVC,,0.00,WeatherDisplay:10.37,2013-05-11 10:55:00,
2013-05-11 07:00:00,67.8,64.1,29.99,NE,45,0.0,0.0,88,0.00,OVC,,0.00,WeatherDisplay:10.37,2013-05-11 11:00:00,
2013-05-11 07:05:00,67.6,64.0,29.99,NE,45,0.0,0.0,88,0.00,OVC,,0.00,WeatherDisplay:10.37,2013-05-11 11:05:00,
2013-05-11 07:10:00,67.6,64.0,29.99,NE,45,0.0,0.0,88,0.00,OVC,,0.00,WeatherDisplay:10.37,2013-05-11 11:10:00,
2013-05-11 07:15:00,67.6,64.0,29.99,NE,45,0.0,0.0,88,0.00,OVC,,0.00,WeatherDisplay:10.37,2013-05-11 11:15:00,
2013-05-11 07:20:00,67.6,64.0,29.98,NE,45,0.0,0.0,88,0.00,OVC,,0.00,WeatherDisplay:10.37,2013-05-11 11:20:00,
2013-05-11 07:25:00,67.6,64.3,29.98,NE,45,0.0,0.0,89,0.00,OVC,,0.00,WeatherDisplay:10.37,2013-05-11 11:25:00,
2013-05-11 07:30:00,67.6,64.3,29.98,NE,45,0.0,0.0,89,0.00,OVC,,0.00,WeatherDisplay:10.37,2013-05-11 11:30:00,
2013-05-11 07:35:00,67.8,64.1,29.98,NE,45,0.0,0.0,88,0.00,OVC,,0.00,WeatherDisplay:10.37,2013-05-11 11:35:00,
2013-05-11 07:40:00,67.8,64.1,29.98,NE,45,0.0,0.0,88,0.00,OVC,,0.00,WeatherDisplay:10.37,2013-05-11 11:40:00,
2013-05-11 07:45:00,68.2,64.5,29.98,NE,45,0.0,0.0,88,0.00,OVC,,0.00,WeatherDisplay:10.37,2013-05-11 11:45:00,
2013-05-11 07:50:00,68.2,64.5,29.98,NE,45,0.0,0.0,88,0.00,OVC,,0.00,WeatherDisplay:10.37,2013-05-11 11:50:00,
2013-05-11 07:55:00,68.2,64.8,29.98,NE,45,0.0,0.0,89,0.00,OVC,,0.00,WeatherDisplay:10.37,2013-05-11 11:55:00,
2013-05-11 08:00:00,68.2,64.5,29.98,NE,45,0.0,0.0,88,0.00,OVC,,0.00,WeatherDisplay:10.37,2013-05-11 12:00:00,
2013-05-11 08:05:00,68.4,65.0,29.99,NE,45,0.0,0.0,89,0.00,BKN,,0.00,WeatherDisplay:10.37,2013-05-11 12:05:00,
2013-05-11 08:10:00,68.5,64.8,29.99,NE,45,0.0,0.0,88,0.00,BKN,,0.00,WeatherDisplay:10.37,2013-05-11 12:10:00,
2013-05-11 08:15:00,68.5,64.8,29.99,NE,45,0.0,0.0,88,0.00,BKN,,0.00,WeatherDisplay:10.37,2013-05-11 12:15:00,
2013-05-11 08:20:00,69.1,65.0,29.98,NE,45,0.0,0.0,87,0.00,BKN,,0.00,WeatherDisplay:10.37,2013-05-11 12:20:00,
2013-05-11 08:25:00,70.0,65.6,29.99,NE,45,0.0,0.0,86,0.00,BKN,,0.00,WeatherDisplay:10.37,2013-05-11 12:25:00,
2013-05-11 08:30:00,70.7,66.0,29.98,NE,45,0.0,0.0,85,0.00,BKN,,0.00,WeatherDisplay:10.37,2013-05-11 12:30:00,
2013-05-11 08:35:00,71.4,65.6,29.98,NE,45,0.0,0.0,82,0.00,BKN,,0.00,WeatherDisplay:10.37,2013-05-11 12:35:00,
2013-05-11 08:40:00,71.4,65.6,29.99,NE,45,0.0,0.0,82,0.00,BKN,,0.00,WeatherDisplay:10.37,2013-05-11 12:40:00,
2013-05-11 08:45:00,71.8,66.0,29.99,NE,45,0.0,0.0,82,0.00,BKN,,0.00,WeatherDisplay:10.37,2013-05-11 12:45:00,
2013-05-11 08:50:00,72.0,66.2,29.99,NE,45,0.0,0.0,82,0.00,BKN,,0.00,WeatherDisplay:10.37,2013-05-11 12:50:00,
2013-05-11 08:55:00,72.1,66.0,29.99,NE,45,0.0,0.0,81,0.00,BKN,,0.00,WeatherDisplay:10.37,2013-05-11 12:55:00,
2013-05-11 09:00:00,72.3,66.2,29.99,NE,45,0.0,0.0,81,0.00,BKN,,0.00,WeatherDisplay:10.37,2013-05-11 13:00:00,
2013-05-11 09:05:00,72.7,66.9,30.00,NE,45,0.0,0.0,82,0.00,BKN,,0.00,WeatherDisplay:10.37,2013-05-11 13:05:00,
2013-05-11 09:10:00,73.0,66.9,30.00,NE,45,0.0,0.0,81,0.00,BKN,,0.00,WeatherDisplay:10.37,2013-05-11 13:10:00,
2013-05-11 09:15:00,73.0,67.2,30.00,NE,45,0.0,0.0,82,0.00,BKN,,0.00,WeatherDisplay:10.37,2013-05-11 13:15:00,
2013-05-11 09:20:00,73.6,67.0,30.00,NE,45,0.0,0.0,80,0.00,BKN,,0.00,WeatherDisplay:10.37,2013-05-11 13:20:00,
2013-05-11 09:25:00,73.8,66.5,30.00,NE,45,0.0,0.0,78,0.00,BKN,,0.00,WeatherDisplay:10.37,2013-05-11 13:25:00,
2013-05-11 09:30:00,73.9,67.0,30.00,NE,45,0.0,0.0,79,0.00,BKN,,0.00,WeatherDisplay:10.37,2013-05-11 13:30:00,
2013-05-11 09:35:00,74.8,67.5,30.00,NE,45,0.0,0.0,78,0.00,BKN,,0.00,WeatherDisplay:10.37,2013-05-11 13:35:00,
2013-05-11 09:40:00,75.7,67.6,30.00,NE,45,0.0,0.0,76,0.00,BKN,,0.00,WeatherDisplay:10.37,2013-05-11 13:40:00,
2013-05-11 09:45:00,76.5,68.7,30.00,NE,45,0.0,0.0,77,0.00,BKN,,0.00,WeatherDisplay:10.37,2013-05-11 13:45:00,
2013-05-11 09:50:00,77.0,68.5,30.00,NE,45,0.0,0.0,75,0.00,BKN,,0.00,WeatherDisplay:10.37,2013-05-11 13:50:00,
2013-05-11 09:55:00,77.0,68.1,30.00,NE,45,0.0,0.0,74,0.00,BKN,,0.00,WeatherDisplay:10.37,2013-05-11 13:55:00,
2013-05-11 10:00:00,77.4,68.4,30.00,NE,45,0.0,0.0,74,0.00,BKN,,0.00,WeatherDisplay:10.37,2013-05-11 14:00:00,
2013-05-11 10:04:00,77.9,68.1,29.99,NE,45,0.0,0.0,72,0.00,SCT,,0.00,WeatherDisplay:10.37,2013-05-11 14:04:00,
2013-05-11 10:09:00,78.1,69.1,30.00,NE,45,0.0,0.0,74,0.00,SCT,,0.00,WeatherDisplay:10.37,2013-05-11 14:09:00,
2013-05-11 10:14:00,78.4,69.5,30.00,NE,45,0.0,0.0,74,0.00,SCT,,0.00,WeatherDisplay:10.37,2013-05-11 14:14:00,
2013-05-11 10:19:00,78.8,69.8,30.00,NE,45,0.0,0.0,74,0.00,SCT,,0.00,WeatherDisplay:10.37,2013-05-11 14:19:00,
2013-05-11 10:24:00,79.0,70.0,30.00,NW,315,0.0,2.8,74,0.00,SCT,,0.00,WeatherDisplay:10.37,2013-05-11 14:24:00,
2013-05-11 10:29:00,78.4,69.9,30.00,West,270,0.0,0.0,75,0.00,SCT,,0.00,WeatherDisplay:10.37,2013-05-11 14:29:00,
2013-05-11 10:34:00,78.4,69.9,30.00,West,270,0.0,2.3,75,0.00,SCT,,0.00,WeatherDisplay:10.37,2013-05-11 14:34:00,
2013-05-11 10:39:00,79.3,71.1,30.00,West,270,0.0,0.0,76,0.00,SCT,,0.00,WeatherDisplay:10.37,2013-05-11 14:39:00,
2013-05-11 10:44:00,80.2,70.8,29.99,West,270,0.0,0.0,73,0.00,SCT,,0.00,WeatherDisplay:10.37,2013-05-11 14:44:00,
2013-05-11 10:49:00,80.8,71.3,29.99,West,270,0.1,4.6,73,0.00,SCT,,0.00,WeatherDisplay:10.37,2013-05-11 14:49:00,
2013-05-11 10:54:00,81.5,71.2,29.99,West,270,0.0,0.0,71,0.00,SCT,,0.00,WeatherDisplay:10.37,2013-05-11 14:54:00,
2013-05-11 10:59:00,81.5,71.2,30.00,West,270,0.0,2.3,71,0.00,SCT,,0.00,WeatherDisplay:10.37,2013-05-11 14:59:00,
2013-05-11 11:04:00,81.0,71.1,29.99,West,270,0.8,4.6,72,0.00,BKN,,0.00,WeatherDisplay:10.37,2013-05-11 15:04:00,
2013-05-11 11:09:00,80.2,70.8,29.99,West,270,0.0,0.0,73,0.00,BKN,,0.00,WeatherDisplay:10.37,2013-05-11 15:09:00,
2013-05-11 11:14:00,80.8,71.3,29.99,West,270,0.4,2.8,73,0.00,BKN,,0.00,WeatherDisplay:10.37,2013-05-11 15:14:00,
2013-05-11 11:19:00,81.5,70.8,29.99,SE,135,0.1,0.0,70,0.00,BKN,,0.00,WeatherDisplay:10.37,2013-05-11 15:19:00,
2013-05-11 11:24:00,82.0,71.7,29.98,West,270,0.0,0.0,71,0.00,BKN,,0.00,WeatherDisplay:10.37,2013-05-11 15:24:00,
2013-05-11 11:29:00,83.3,71.6,29.98,SW,225,0.0,2.3,68,0.00,BKN,,0.00,WeatherDisplay:10.37,2013-05-11 15:29:00,
2013-05-11 11:34:00,83.1,71.5,29.98,West,270,0.1,1.4,68,0.00,BKN,,0.00,WeatherDisplay:10.37,2013-05-11 15:34:00,
2013-05-11 11:39:00,82.2,71.0,29.98,SW,225,0.0,0.0,69,0.00,BKN,,0.00,WeatherDisplay:10.37,2013-05-11 15:39:00,
2013-05-11 11:44:00,82.9,71.3,29.98,SW,225,1.8,2.3,68,0.00,BKN,,0.00,WeatherDisplay:10.37,2013-05-11 15:44:00,
2013-05-11 11:49:00,83.5,71.4,29.97,SW,225,0.0,2.3,67,0.00,BKN,,0.00,WeatherDisplay:10.37,2013-05-11 15:49:00,
2013-05-11 11:54:00,84.6,71.5,29.97,SW,225,0.0,0.0,65,0.00,BKN,,0.00,WeatherDisplay:10.37,2013-05-11 15:54:00,
2013-05-11 11:59:00,84.9,71.4,29.98,SW,225,1.9,2.8,64,0.00,BKN,,0.00,WeatherDisplay:10.37,2013-05-11 15:59:00,
2013-05-11 12:04:00,85.3,71.7,29.97,North,0,0.0,2.3,64,0.00,BKN,,0.00,WeatherDisplay:10.37,2013-05-11 16:04:00,
2013-05-11 12:09:00,85.5,71.0,29.97,West,270,3.7,3.7,62,0.00,BKN,,0.00,WeatherDisplay:10.37,2013-05-11 16:09:00,
2013-05-11 12:14:00,84.6,71.0,29.97,West,270,0.1,2.8,64,0.00,BKN,,0.00,WeatherDisplay:10.37,2013-05-11 16:14:00,
2013-05-11 12:19:00,84.6,71.0,29.97,West,270,2.0,2.3,64,0.00,BKN,,0.00,WeatherDisplay:10.37,2013-05-11 16:19:00,
2013-05-11 12:24:00,85.1,70.6,29.97,SW,225,0.0,2.3,62,0.00,BKN,,0.00,WeatherDisplay:10.37,2013-05-11 16:24:00,
2013-05-11 12:29:00,84.0,71.0,29.97,SW,225,0.0,2.3,65,0.00,BKN,,0.00,WeatherDisplay:10.37,2013-05-11 16:29:00,
2013-05-11 12:34:00,84.7,71.2,29.97,NW,315,0.3,2.8,64,0.00,BKN,,0.00,WeatherDisplay:10.37,2013-05-11 16:34:00,
2013-05-11 12:39:00,85.8,71.3,29.96,SW,225,0.0,1.4,62,0.00,BKN,,0.00,WeatherDisplay:10.37,2013-05-11 16:39:00,
2013-05-11 12:44:00,85.3,71.3,29.96,West,270,0.0,5.8,63,0.00,BKN,,0.00,WeatherDisplay:10.37,2013-05-11 16:44:00,
2013-05-11 12:49:00,85.3,71.3,29.96,SE,135,0.0,0.0,63,0.00,BKN,,0.00,WeatherDisplay:10.37,2013-05-11 16:49:00,
2013-05-11 12:54:00,85.8,71.8,29.95,NW,315,0.0,0.0,63,0.00,BKN,,0.00,WeatherDisplay:10.37,2013-05-11 16:54:00,
2013-05-11 12:59:00,85.3,70.8,29.95,West,270,0.0,2.3,62,0.00,BKN,,0.00,WeatherDisplay:10.37,2013-05-11 16:59:00,
2013-05-11 13:04:00,85.8,72.2,29.95,West,270,0.0,0.0,64,0.00,BKN,,0.00,WeatherDisplay:10.37,2013-05-11 17:04:00,
2013-05-11 13:09:00,86.5,71.5,29.95,West,270,0.0,0.0,61,0.00,BKN,,0.00,WeatherDisplay:10.37,2013-05-11 17:09:00,
2013-05-11 13:14:00,86.5,71.5,29.95,South,180,0.0,0.0,61,0.00,BKN,,0.00,WeatherDisplay:10.37,2013-05-11 17:14:00,
2013-05-11 13:19:00,87.1,71.0,29.94,NW,315,0.0,0.0,59,0.00,BKN,,0.00,WeatherDisplay:10.37,2013-05-11 17:19:00,
2013-05-11 13:24:00,86.5,71.5,29.94,SW,225,0.0,0.0,61,0.00,BKN,,0.00,WeatherDisplay:10.37,2013-05-11 17:24:00,
2013-05-11 13:29:00,86.4,70.8,29.94,West,270,0.0,0.0,60,0.00,BKN,,0.00,WeatherDisplay:10.37,2013-05-11 17:29:00,
2013-05-11 13:34:00,87.6,70.5,29.94,West,270,0.0,2.8,57,0.00,BKN,,0.00,WeatherDisplay:10.37,2013-05-11 17:34:00,
2013-05-11 13:39:00,87.1,71.0,29.94,West,270,0.0,2.3,59,0.00,BKN,,0.00,WeatherDisplay:10.37,2013-05-11 17:39:00,
2013-05-11 13:44:00,86.2,69.7,29.94,West,270,0.0,0.0,58,0.00,BKN,,0.00,WeatherDisplay:10.37,2013-05-11 17:44:00,
2013-05-11 13:49:00,85.8,70.8,29.93,West,270,1.5,4.6,61,0.00,BKN,,0.00,WeatherDisplay:10.37,2013-05-11 17:49:00,
2013-05-11 13:54:00,86.9,70.3,29.93,West,270,1.2,2.3,58,0.00,BKN,,0.00,WeatherDisplay:10.37,2013-05-11 17:54:00,
2013-05-11 13:59:00,87.4,71.3,29.93,SW,225,0.0,2.3,59,0.00,BKN,,0.00,WeatherDisplay:10.37,2013-05-11 17:59:00,
2013-05-11 14:04:00,88.3,70.1,29.93,SW,225,1.7,1.7,55,0.00,BKN,,0.00,WeatherDisplay:10.37,2013-05-11 18:04:00,
2013-05-11 14:09:00,88.3,70.7,29.94,SW,225,1.4,2.3,56,0.00,BKN,,0.00,WeatherDisplay:10.37,2013-05-11 18:09:00,
2013-05-11 14:14:00,88.2,71.5,29.93,West,270,0.0,2.3,58,0.00,BKN,,0.00,WeatherDisplay:10.37,2013-05-11 18:14:00,
2013-05-11 14:19:00,87.4,70.3,29.93,West,270,0.0,0.0,57,0.00,BKN,,0.00,WeatherDisplay:10.37,2013-05-11 18:19:00,
2013-05-11 14:24:00,88.2,70.5,29.93,West,270,0.0,0.0,56,0.00,BKN,,0.00,WeatherDisplay:10.37,2013-05-11 18:24:00,
2013-05-11 14:29:00,88.3,70.1,29.93,West,270,0.0,4.6,55,0.00,BKN,,0.00,WeatherDisplay:10.37,2013-05-11 18:29:00,
2013-05-11 14:34:00,87.8,70.1,29.93,West,270,0.0,0.0,56,0.00,BKN,,0.00,WeatherDisplay:10.37,2013-05-11 18:34:00,
2013-05-11 14:39:00,87.3,70.2,29.92,West,270,0.0,0.0,57,0.00,BKN,,0.00,WeatherDisplay:10.37,2013-05-11 18:39:00,
2013-05-11 14:44:00,87.6,71.0,29.93,West,270,0.0,2.3,58,0.00,BKN,,0.00,WeatherDisplay:10.37,2013-05-11 18:44:00,
2013-05-11 14:49:00,88.2,71.0,29.92,West,270,3.2,3.2,57,0.00,BKN,,0.00,WeatherDisplay:10.37,2013-05-11 18:49:00,
2013-05-11 14:54:00,87.4,70.8,29.92,West,270,0.0,0.0,58,0.00,BKN,,0.00,WeatherDisplay:10.37,2013-05-11 18:54:00,
2013-05-11 14:59:00,88.0,70.8,29.92,SW,225,0.7,1.2,57,0.00,BKN,,0.00,WeatherDisplay:10.37,2013-05-11 18:59:00,
2013-05-11 15:04:00,88.2,70.0,29.92,South,180,0.0,0.0,55,0.00,BKN,,0.00,WeatherDisplay:10.37,2013-05-11 19:04:00,
2013-05-11 15:09:00,88.5,71.3,29.92,SW,225,1.2,2.3,57,0.00,BKN,,0.00,WeatherDisplay:10.37,2013-05-11 19:09:00,
2013-05-11 15:14:00,88.7,70.5,29.91,SW,225,1.7,2.8,55,0.00,BKN,,0.00,WeatherDisplay:10.37,2013-05-11 19:14:00,
2013-05-11 15:19:00,88.3,69.6,29.91,SW,225,0.0,2.3,54,0.00,BKN,,0.00,WeatherDisplay:10.37,2013-05-11 19:19:00,
2013-05-11 15:24:00,87.1,70.5,29.91,West,270,0.2,1.4,58,0.00,BKN,,0.00,WeatherDisplay:10.37,2013-05-11 19:24:00,
2013-05-11 15:29:00,86.4,70.3,29.91,West,270,0.0,1.2,59,0.00,BKN,,0.00,WeatherDisplay:10.37,2013-05-11 19:29:00,
2013-05-11 15:34:00,85.8,69.8,29.91,West,270,0.0,2.3,59,0.00,BKN,,0.00,WeatherDisplay:10.37,2013-05-11 19:34:00,
2013-05-11 15:39:00,85.3,70.3,29.91,West,270,0.0,2.3,61,0.00,BKN,,0.00,WeatherDisplay:10.37,2013-05-11 19:39:00,
2013-05-11 15:44:00,84.7,71.7,29.91,SW,225,0.0,4.6,65,0.00,BKN,,0.00,WeatherDisplay:10.37,2013-05-11 19:44:00,
2013-05-11 15:49:00,82.9,70.4,29.91,SW,225,0.0,0.0,66,0.00,BKN,,0.00,WeatherDisplay:10.37,2013-05-11 19:49:00,
2013-05-11 15:54:00,81.9,71.1,29.90,SW,225,0.0,0.0,70,0.00,BKN,,0.00,WeatherDisplay:10.37,2013-05-11 19:54:00,
2013-05-11 15:59:00,81.5,70.8,29.91,SW,225,0.0,1.2,70,0.00,BKN,,0.00,WeatherDisplay:10.37,2013-05-11 19:59:00,
2013-05-11 16:03:00,81.1,71.3,29.92,West,270,2.3,4.6,72,0.00,BKN,,0.00,WeatherDisplay:10.37,2013-05-11 20:03:00,
2013-05-11 16:08:00,77.5,72.3,29.92,West,270,0.0,4.6,84,0.02,RA,,0.02,WeatherDisplay:10.37,2013-05-11 20:08:00,
2013-05-11 16:13:00,76.1,72.3,29.93,West,270,0.0,0.0,88,0.06,-RA,,0.06,WeatherDisplay:10.37,2013-05-11 20:13:00,
2013-05-11 16:18:00,75.4,71.9,29.93,West,270,0.0,0.0,89,0.06,-RA,,0.06,WeatherDisplay:10.37,2013-05-11 20:18:00,
2013-05-11 16:23:00,73.9,70.5,29.92,West,270,2.9,2.9,89,0.15,RA,,0.15,WeatherDisplay:10.37,2013-05-11 20:23:00,
2013-05-11 16:28:00,72.5,69.1,29.93,West,270,0.1,2.3,89,0.17,RA,,0.17,WeatherDisplay:10.37,2013-05-11 20:28:00,
2013-05-11 16:33:00,71.6,68.2,29.93,South,180,0.6,4.6,89,0.19,RA,,0.19,WeatherDisplay:10.37,2013-05-11 20:33:00,
2013-05-11 16:38:00,70.7,67.3,29.93,SW,225,0.3,2.8,89,0.19,RA,,0.19,WeatherDisplay:10.37,2013-05-11 20:38:00,
2013-05-11 16:43:00,70.5,66.5,29.94,SW,225,0.0,2.3,87,0.21,RA,,0.21,WeatherDisplay:10.37,2013-05-11 20:43:00,
2013-05-11 16:48:00,70.9,67.5,29.93,SW,225,0.0,0.0,89,0.21,RA,,0.21,WeatherDisplay:10.37,2013-05-11 20:48:00,
2013-05-11 16:53:00,71.6,68.5,29.94,SW,225,0.0,0.0,90,0.21,OVC,,0.21,WeatherDisplay:10.37,2013-05-11 20:53:00,
2013-05-11 16:58:00,72.1,69.4,29.95,SW,225,0.6,2.8,91,0.21,OVC,,0.21,WeatherDisplay:10.37,2013-05-11 20:58:00,
2013-05-11 17:03:00,72.1,69.4,29.94,SE,135,0.0,0.0,91,0.21,OVC,,0.21,WeatherDisplay:10.37,2013-05-11 21:03:00,
2013-05-11 17:08:00,72.3,69.2,29.93,SE,135,0.0,0.0,90,0.19,OVC,,0.21,WeatherDisplay:10.37,2013-05-11 21:08:00,
2013-05-11 17:13:00,72.7,69.9,29.93,SE,135,0.0,0.0,91,0.15,OVC,,0.21,WeatherDisplay:10.37,2013-05-11 21:13:00,
2013-05-11 17:18:00,72.7,69.6,29.93,SE,135,0.0,0.0,90,0.15,OVC,,0.21,WeatherDisplay:10.37,2013-05-11 21:18:00,
2013-05-11 17:23:00,73.2,70.4,29.93,SE,135,0.0,0.0,91,0.06,OVC,,0.21,WeatherDisplay:10.37,2013-05-11 21:23:00,
2013-05-11 17:28:00,73.8,71.3,29.93,SE,135,0.0,0.0,92,0.04,OVC,,0.21,WeatherDisplay:10.37,2013-05-11 21:28:00,
2013-05-11 17:33:00,74.1,71.6,29.92,SE,135,0.0,0.0,92,0.02,OVC,,0.21,WeatherDisplay:10.37,2013-05-11 21:33:00,
2013-05-11 17:38:00,74.1,71.3,29.92,SE,135,0.0,0.0,91,0.02,OVC,,0.21,WeatherDisplay:10.37,2013-05-11 21:38:00,
2013-05-11 17:43:00,74.7,71.2,29.93,SE,135,0.0,0.0,89,0.00,OVC,,0.21,WeatherDisplay:10.37,2013-05-11 21:43:00,
2013-05-11 17:48:00,75.0,71.6,29.93,SE,135,0.0,0.0,89,0.00,OVC,,0.21,WeatherDisplay:10.37,2013-05-11 21:48:00,
2013-05-11 17:53:00,75.4,71.9,29.94,SE,135,0.0,0.0,89,0.00,OVC,,0.21,WeatherDisplay:10.37,2013-05-11 21:53:00,
2013-05-11 17:58:00,75.9,72.4,29.93,SE,135,0.0,0.0,89,0.00,OVC,,0.21,WeatherDisplay:10.37,2013-05-11 21:58:00,
2013-05-11 18:03:00,76.1,72.3,29.93,SE,135,0.0,0.0,88,0.00,OVC,,0.21,WeatherDisplay:10.37,2013-05-11 22:03:00,
2013-05-11 18:08:00,76.3,72.1,29.93,SE,135,0.0,0.0,87,0.00,OVC,,0.21,WeatherDisplay:10.37,2013-05-11 22:08:00,
2013-05-11 18:13:00,76.6,72.5,29.93,SE,135,0.0,0.0,87,0.00,OVC,,0.21,WeatherDisplay:10.37,2013-05-11 22:13:00,
2013-05-11 18:18:00,76.6,71.8,29.94,SE,135,0.0,0.0,85,0.00,OVC,,0.21,WeatherDisplay:10.37,2013-05-11 22:18:00,
2013-05-11 18:23:00,76.6,72.1,29.94,SE,135,0.0,0.0,86,0.00,OVC,,0.21,WeatherDisplay:10.37,2013-05-11 22:23:00,
2013-05-11 18:28:00,76.8,72.3,29.94,SE,135,0.2,2.8,86,0.00,OVC,,0.21,WeatherDisplay:10.37,2013-05-11 22:28:00,
2013-05-11 18:33:00,76.6,72.1,29.95,SE,135,0.0,0.0,86,0.00,OVC,,0.21,WeatherDisplay:10.37,2013-05-11 22:33:00,
2013-05-11 18:38:00,76.6,72.1,29.95,SE,135,0.0,0.0,86,0.00,OVC,,0.21,WeatherDisplay:10.37,2013-05-11 22:38:00,
2013-05-11 18:43:00,76.3,71.4,29.95,SW,225,0.5,4.2,85,0.00,OVC,,0.21,WeatherDisplay:10.37,2013-05-11 22:43:00,
2013-05-11 18:48:00,76.3,70.7,29.95,SW,225,4.3,4.6,83,0.00,OVC,,0.21,WeatherDisplay:10.37,2013-05-11 22:48:00,
2013-05-11 18:53:00,75.7,69.9,29.96,West,270,0.1,4.6,82,0.00,OVC,,0.21,WeatherDisplay:10.37,2013-05-11 22:53:00,
2013-05-11 18:58:00,75.0,69.5,29.96,SW,225,2.1,4.6,83,0.00,OVC,,0.21,WeatherDisplay:10.37,2013-05-11 22:58:00,
2013-05-11 19:03:00,74.5,68.6,29.97,West,270,1.9,2.3,82,0.00,OVC,,0.21,WeatherDisplay:10.37,2013-05-11 23:03:00,
2013-05-11 19:08:00,74.3,68.4,29.97,SW,225,0.0,0.0,82,0.00,OVC,,0.21,WeatherDisplay:10.37,2013-05-11 23:08:00,
2013-05-11 19:13:00,73.9,68.1,29.96,SW,225,0.0,0.0,82,0.00,OVC,,0.21,WeatherDisplay:10.37,2013-05-11 23:13:00,
2013-05-11 19:18:00,73.6,67.0,29.96,SW,225,0.0,2.3,80,0.00,OVC,,0.21,WeatherDisplay:10.37,2013-05-11 23:18:00,
2013-05-11 19:23:00,73.6,67.0,29.96,SW,225,0.3,2.8,80,0.00,OVC,,0.21,WeatherDisplay:10.37,2013-05-11 23:23:00,
2013-05-11 19:28:00,73.0,66.9,29.97,SW,225,0.0,2.3,81,0.00,OVC,,0.21,WeatherDisplay:10.37,2013-05-11 23:28:00,
2013-05-11 19:33:00,73.0,66.9,29.97,SW,225,0.0,0.0,81,0.00,OVC,,0.21,WeatherDisplay:10.37,2013-05-11 23:33:00,
2013-05-11 19:38:00,72.5,66.7,29.97,SW,225,0.0,2.3,82,0.00,OVC,,0.21,WeatherDisplay:10.37,2013-05-11 23:38:00,
2013-05-11 19:43:00,72.1,67.0,29.97,SW,225,0.0,2.3,84,0.00,OVC,,0.21,WeatherDisplay:10.37,2013-05-11 23:43:00,
2013-05-11 19:48:00,71.4,66.7,29.96,SW,225,0.0,1.2,85,0.00,OVC,,0.21,WeatherDisplay:10.37,2013-05-11 23:48:00,
2013-05-11 19:53:00,71.2,66.8,29.96,SW,225,0.0,0.0,86,0.00,OVC,,0.21,WeatherDisplay:10.37,2013-05-11 23:53:00,
2013-05-11 19:58:00,70.9,66.8,29.96,SW,225,0.0,0.0,87,0.00,OVC,,0.21,WeatherDisplay:10.37,2013-05-11 23:58:00,
2013-05-11 20:03:00,70.5,66.8,29.95,SW,225,0.0,0.0,88,0.00,-RA,,0.21,WeatherDisplay:10.37,2013-05-12 00:03:00,
2013-05-11 20:08:00,70.3,66.6,29.95,SW,225,0.0,0.0,88,0.00,-RA,,0.21,WeatherDisplay:10.37,2013-05-12 00:08:00,
2013-05-11 20:13:00,70.0,66.6,29.94,SW,225,0.0,0.0,89,0.00,-RA,,0.21,WeatherDisplay:10.37,2013-05-12 00:13:00,
2013-05-11 20:18:00,69.8,66.4,29.92,SW,225,0.0,0.0,89,0.00,-RA,,0.21,WeatherDisplay:10.37,2013-05-12 00:18:00,
2013-05-11 20:23:00,69.4,66.1,29.91,SW,225,0.0,0.0,89,0.00,-RA,,0.21,WeatherDisplay:10.37,2013-05-12 00:23:00,
2013-05-11 20:28:00,69.4,66.7,29.92,SW,225,0.0,0.0,91,0.00,-RA,,0.21,WeatherDisplay:10.37,2013-05-12 00:28:00,
2013-05-11 20:33:00,69.1,66.7,29.91,SW,225,0.0,0.0,92,0.00,-RA,,0.21,WeatherDisplay:10.37,2013-05-12 00:33:00,
2013-05-11 20:38:00,69.1,67.0,29.92,SW,225,0.0,0.0,93,0.00,-RA,,0.21,WeatherDisplay:10.37,2013-05-12 00:38:00,
2013-05-11 20:43:00,68.9,66.5,29.91,West,270,0.0,2.3,92,0.00,-RA,,0.21,WeatherDisplay:10.37,2013-05-12 00:43:00,
2013-05-11 20:48:00,68.7,66.3,29.90,West,270,0.0,0.0,92,0.00,-RA,,0.21,WeatherDisplay:10.37,2013-05-12 00:48:00,
2013-05-11 20:53:00,68.5,66.1,29.89,West,270,0.0,0.0,92,0.00,-RA,,0.21,WeatherDisplay:10.37,2013-05-12 00:53:00,
2013-05-11 20:58:00,68.5,66.1,29.90,West,270,0.0,0.0,92,0.00,-RA,,0.21,WeatherDisplay:10.37,2013-05-12 00:58:00,
2013-05-11 21:03:00,68.4,65.9,29.89,West,270,0.0,0.0,92,0.00,BKN,,0.21,WeatherDisplay:10.37,2013-05-12 01:03:00,
2013-05-11 21:08:00,68.4,66.3,29.90,West,270,0.0,0.0,93,0.00,BKN,,0.21,WeatherDisplay:10.37,2013-05-12 01:08:00,
2013-05-11 21:13:00,68.4,66.6,29.90,West,270,0.0,0.0,94,0.00,BKN,,0.21,WeatherDisplay:10.37,2013-05-12 01:13:00,
2013-05-11 21:18:00,68.2,66.4,29.91,West,270,0.0,0.0,94,0.00,BKN,,0.21,WeatherDisplay:10.37,2013-05-12 01:18:00,
2013-05-11 21:23:00,68.2,66.4,29.92,West,270,0.0,0.0,94,0.00,BKN,,0.21,WeatherDisplay:10.37,2013-05-12 01:23:00,
2013-05-11 21:28:00,68.0,66.2,29.92,West,270,0.0,0.0,94,0.00,BKN,,0.21,WeatherDisplay:10.37,2013-05-12 01:28:00,
2013-05-11 21:33:00,68.0,66.2,29.94,West,270,0.0,0.0,94,0.00,BKN,,0.21,WeatherDisplay:10.37,2013-05-12 01:33:00,
2013-05-11 21:38:00,68.2,66.4,29.94,West,270,0.0,0.0,94,0.00,BKN,,0.21,WeatherDisplay:10.37,2013-05-12 01:38:00,
2013-05-11 21:43:00,68.0,66.2,29.94,West,270,0.0,0.0,94,0.00,BKN,,0.21,WeatherDisplay:10.37,2013-05-12 01:43:00,
2013-05-11 21:48:00,68.0,66.2,29.94,West,270,0.0,0.0,94,0.00,BKN,,0.21,WeatherDisplay:10.37,2013-05-12 01:48:00,
2013-05-11 21:53:00,68.0,66.2,29.94,West,270,0.0,0.0,94,0.00,BKN,,0.21,WeatherDisplay:10.37,2013-05-12 01:53:00,
2013-05-11 21:58:00,67.8,66.0,29.95,West,270,0.0,0.0,94,0.00,BKN,,0.21,WeatherDisplay:10.37,2013-05-12 01:58:00,
2013-05-11 22:02:00,67.8,66.3,29.95,West,270,0.0,0.0,95,0.00,BKN,,0.21,WeatherDisplay:10.37,2013-05-12 02:02:00,
2013-05-11 22:07:00,67.6,66.2,29.95,West,270,0.0,0.0,95,0.00,BKN,,0.21,WeatherDisplay:10.37,2013-05-12 02:07:00,
2013-05-11 22:12:00,67.6,66.2,29.95,West,270,0.0,0.0,95,0.00,BKN,,0.21,WeatherDisplay:10.37,2013-05-12 02:12:00,
2013-05-11 22:17:00,67.6,66.2,29.95,West,270,0.0,0.0,95,0.00,BKN,,0.21,WeatherDisplay:10.37,2013-05-12 02:17:00,
2013-05-11 22:22:00,67.6,66.2,29.95,West,270,0.0,0.0,95,0.00,BKN,,0.21,WeatherDisplay:10.37,2013-05-12 02:22:00,
2013-05-11 22:27:00,67.5,66.0,29.95,West,270,0.0,0.0,95,0.00,BKN,,0.21,WeatherDisplay:10.37,2013-05-12 02:27:00,
2013-05-11 22:32:00,67.3,65.8,29.95,West,270,0.0,0.0,95,0.00,BKN,,0.21,WeatherDisplay:10.37,2013-05-12 02:32:00,
2013-05-11 22:37:00,67.3,65.8,29.95,West,270,0.0,0.0,95,0.00,BKN,,0.21,WeatherDisplay:10.37,2013-05-12 02:37:00,
2013-05-11 22:42:00,67.3,65.8,29.95,West,270,0.0,0.0,95,0.00,BKN,,0.21,WeatherDisplay:10.37,2013-05-12 02:42:00,
2013-05-11 22:47:00,67.3,65.8,29.95,West,270,0.0,0.0,95,0.00,BKN,,0.21,WeatherDisplay:10.37,2013-05-12 02:47:00,
2013-05-11 22:52:00,67.1,65.6,29.95,West,270,0.0,0.0,95,0.00,BKN,,0.21,WeatherDisplay:10.37,2013-05-12 02:52:00,
2013-05-11 22:57:00,66.9,65.4,29.95,West,270,0.0,0.0,95,0.00,BKN,,0.21,WeatherDisplay:10.37,2013-05-12 02:57:00,
2013-05-11 23:02:00,66.9,65.4,29.95,West,270,0.0,0.0,95,0.00,OVC,,0.21,WeatherDisplay:10.37,2013-05-12 03:02:00,
2013-05-11 23:07:00,66.9,65.4,29.95,West,270,0.0,0.0,95,0.00,OVC,,0.21,WeatherDisplay:10.37,2013-05-12 03:07:00,
2013-05-11 23:12:00,66.9,65.4,29.95,West,270,0.0,0.0,95,0.00,OVC,,0.21,WeatherDisplay:10.37,2013-05-12 03:12:00,
2013-05-11 23:17:00,66.9,65.4,29.95,West,270,0.0,0.0,95,0.00,OVC,,0.21,WeatherDisplay:10.37,2013-05-12 03:17:00,
2013-05-11 23:22:00,66.9,65.4,29.95,West,270,0.0,0.0,95,0.00,OVC,,0.21,WeatherDisplay:10.37,2013-05-12 03:22:00,
2013-05-11 23:27:00,66.9,65.4,29.95,West,270,0.0,0.0,95,0.00,OVC,,0.21,WeatherDisplay:10.37,2013-05-12 03:27:00,
2013-05-11 23:32:00,66.7,65.3,29.95,West,270,0.0,0.0,95,0.00,OVC,,0.21,WeatherDisplay:10.37,2013-05-12 03:32:00,
2013-05-11 23:37:00,66.7,65.3,29.96,West,270,0.0,0.0,95,0.00,OVC,,0.21,WeatherDisplay:10.37,2013-05-12 03:37:00,
2013-05-11 23:42:00,66.9,65.7,29.96,West,270,0.0,0.0,96,0.00,OVC,,0.21,WeatherDisplay:10.37,2013-05-12 03:42:00,
2013-05-11 23:47:00,66.7,65.6,29.96,West,270,0.0,0.0,96,0.00,OVC,,0.21,WeatherDisplay:10.37,2013-05-12 03:47:00,
2013-05-11 23:52:00,66.7,65.6,29.97,West,270,0.0,0.0,96,0.00,OVC,,0.21,WeatherDisplay:10.37,2013-05-12 03:52:00,
2013-05-11 23:57:00,66.7,65.6,29.97,West,270,0.0,0.0,96,0.00,OVC,,0.21,WeatherDisplay:10.37,2013-05-12 03:57:00,